< < Back
Terminal Aerodrome Forecast


Current Version              Previous Versions:   1  2  3  4  5  6  7  8  9  

Terminal Aerodrome Forecast

071
FTUS42 KFFC 190520
TAFMCN
TAF
KMCN 190520Z 1906/2006 15005KT 6SM BR OVC080
      TEMPO 1906/1910 2SM BR OVC040
     FM191000 16006KT 4SM -SHRA BR OVC025
     FM191300 16006KT 3SM -SHRA BR OVC008
     FM191700 19008G16KT 4SM -TSRA BKN015CB OVC025
     FM192100 21008G16KT P6SM VCSH BKN015
     FM200000 21005KT P6SM BKN030=



Latest METAR

675
SAUS80 KWBC 191100 RRB
MTRMCN
METAR KMCN 191053Z AUTO 13006KT 7SM FEW004 OVC100 20/19 A2985 RMK AO2
RAE34 SLP102 P0001 T02000194 TSNO


USA.gov is the U.S. government's official web portal to all federal, state and local government web resources and services.